createdAt,value
2023-04-08T00:00:02.982Z,9.48
2023-04-08T00:02:57.429Z,8.63
2023-04-08T00:05:25.517Z,8.73
2023-04-08T00:07:52.716Z,9.52
2023-04-08T00:10:20.612Z,8.85
2023-04-08T00:12:48.544Z,9.25
2023-04-08T00:15:16.292Z,9.07
2023-04-08T00:17:43.582Z,11.43
2023-04-08T00:20:11.883Z,11.05
2023-04-08T00:22:39.049Z,9.85
2023-04-08T00:25:07.251Z,47.88
2023-04-08T00:27:34.474Z,13.82
2023-04-08T00:30:02.658Z,9.43
2023-04-08T00:32:30.165Z,10.10
2023-04-08T00:34:58.966Z,11.52
2023-04-08T00:37:26.220Z,10.45
2023-04-08T00:39:54.435Z,14.02
2023-04-08T00:42:24.375Z,13.27
2023-04-08T00:44:51.866Z,12.57
2023-04-08T00:47:19.699Z,10.55
2023-04-08T00:49:47.356Z,9.70
2023-04-08T00:52:14.506Z,26.52
2023-04-08T00:54:42.626Z,22.63
2023-04-08T00:57:09.851Z,53.10
2023-04-08T00:59:37.487Z,11.57
2023-04-08T01:02:14.007Z,9.68
2023-04-08T01:05:03.574Z,14.57
2023-04-08T01:07:51.320Z,18.63
2023-04-08T01:10:25.935Z,10.07
2023-04-08T01:13:08.730Z,24.75
2023-04-08T01:15:39.398Z,10.18
2023-04-08T01:18:15.857Z,11.52
2023-04-08T01:20:44.772Z,10.07
2023-04-08T01:23:29.426Z,9.32
2023-04-08T01:25:57.594Z,25.30
2023-04-08T01:28:28.520Z,11.10
2023-04-08T01:30:59.555Z,9.98
2023-04-08T01:33:29.173Z,9.10
2023-04-08T01:35:58.647Z,9.13
2023-04-08T01:38:26.867Z,9.05
2023-04-08T01:40:55.933Z,9.13
2023-04-08T01:43:24.852Z,9.60
2023-04-08T01:45:58.357Z,10.40
2023-04-08T01:48:26.388Z,11.82
2023-04-08T01:50:55.962Z,7.40
2023-04-08T01:53:23.629Z,43.20
2023-04-08T01:55:58.331Z,9.43
2023-04-08T01:58:33.387Z,7.88
2023-04-08T02:01:01.081Z,8.27
2023-04-08T02:03:30.457Z,11.90
2023-04-08T02:05:58.334Z,9.98
2023-04-08T02:08:25.488Z,8.95
2023-04-08T02:10:54.652Z,9.07
2023-04-08T02:13:21.843Z,8.20
2023-04-08T02:15:56.877Z,7.75
2023-04-08T02:18:29.512Z,8.75
2023-04-08T02:21:07.296Z,7.28
2023-04-08T02:23:38.801Z,8.05
2023-04-08T02:26:13.887Z,9.38
2023-04-08T02:28:42.773Z,6.70
2023-04-08T02:31:15.108Z,6.32
2023-04-08T02:33:46.872Z,7.05
2023-04-08T02:36:15.657Z,8.93
2023-04-08T02:38:42.886Z,7.97
2023-04-08T02:41:13.001Z,7.78
2023-04-08T02:43:40.168Z,7.60
2023-04-08T02:46:08.575Z,8.57
2023-04-08T02:48:37.157Z,8.50
2023-04-08T02:51:04.765Z,7.60
2023-04-08T02:53:32.000Z,7.15
2023-04-08T02:55:59.786Z,5.75
2023-04-08T02:58:26.987Z,7.18
2023-04-08T03:00:54.637Z,7.63
2023-04-08T03:03:28.035Z,8.65
2023-04-08T03:05:59.201Z,7.03
2023-04-08T03:08:26.618Z,8.38
2023-04-08T03:10:54.403Z,7.57
2023-04-08T03:13:21.647Z,8.00
2023-04-08T03:15:49.113Z,8.25
2023-04-08T03:18:16.537Z,12.38
2023-04-08T03:20:44.053Z,7.32
2023-04-08T03:23:11.296Z,8.20
2023-04-08T03:25:38.878Z,7.05
2023-04-08T03:28:06.363Z,7.38
2023-04-08T03:30:34.168Z,6.22
2023-04-08T03:33:02.931Z,7.50
2023-04-08T03:35:30.809Z,10.95
2023-04-08T03:37:57.953Z,6.82
2023-04-08T03:40:28.335Z,13.75
2023-04-08T03:42:55.598Z,9.07
2023-04-08T03:45:23.192Z,7.70
2023-04-08T03:47:50.536Z,7.20
2023-04-08T03:50:18.039Z,8.00
2023-04-08T03:52:45.313Z,9.30
2023-04-08T03:55:12.865Z,7.88
2023-04-08T03:57:40.085Z,7.47
2023-04-08T04:00:08.426Z,5.70
2023-04-08T04:02:39.597Z,6.45
2023-04-08T04:05:08.459Z,5.30
2023-04-08T04:07:35.701Z,7.53
2023-04-08T04:10:03.415Z,7.32
2023-04-08T04:12:33.795Z,7.68
2023-04-08T04:15:01.307Z,9.32
2023-04-08T04:17:28.563Z,7.72
2023-04-08T04:19:56.544Z,8.15
2023-04-08T04:22:24.712Z,9.25
2023-04-08T04:24:52.262Z,32.17
2023-04-08T04:27:19.579Z,14.10
2023-04-08T04:29:47.149Z,11.50
2023-04-08T04:32:14.643Z,10.10
2023-04-08T04:34:42.306Z,10.80
2023-04-08T04:37:09.430Z,28.50
2023-04-08T04:39:38.028Z,24.40
2023-04-08T04:42:05.393Z,8.55
2023-04-08T04:44:33.353Z,9.13
2023-04-08T04:47:00.583Z,8.40
2023-04-08T04:49:28.306Z,7.25
2023-04-08T04:51:55.856Z,9.07
2023-04-08T04:54:23.522Z,8.13
2023-04-08T04:56:50.728Z,9.40
2023-04-08T04:59:18.316Z,8.70
2023-04-08T05:01:45.778Z,10.07
2023-04-08T05:04:13.420Z,10.18
2023-04-08T05:06:40.674Z,11.07
2023-04-08T05:09:08.360Z,10.60
2023-04-08T05:11:35.656Z,11.00
2023-04-08T05:14:03.184Z,10.60
2023-04-08T05:16:30.789Z,9.70
2023-04-08T05:18:58.411Z,11.73
2023-04-08T05:21:26.348Z,10.13
2023-04-08T05:23:54.567Z,8.27
2023-04-08T05:26:24.611Z,8.63
2023-04-08T05:28:55.701Z,8.75
2023-04-08T05:31:23.707Z,8.15
2023-04-08T05:33:51.398Z,7.90
2023-04-08T05:36:18.674Z,8.38
2023-04-08T05:38:46.211Z,8.35
2023-04-08T05:41:13.499Z,9.50
2023-04-08T05:43:41.524Z,7.47
2023-04-08T05:46:10.464Z,7.80
2023-04-08T05:48:38.078Z,7.30
2023-04-08T05:51:05.525Z,7.70
2023-04-08T05:53:33.062Z,7.30
2023-04-08T05:56:00.244Z,7.03
2023-04-08T05:58:27.828Z,6.90
2023-04-08T06:00:57.667Z,8.05
2023-04-08T06:03:28.560Z,8.02
2023-04-08T06:05:55.927Z,11.98
2023-04-08T06:08:23.908Z,11.43
2023-04-08T06:10:53.774Z,7.60
2023-04-08T06:13:22.182Z,16.35
2023-04-08T06:15:50.008Z,143.25
2023-04-08T06:18:17.873Z,27.90
2023-04-08T06:20:45.264Z,42.45
2023-04-08T06:23:13.605Z,26.92
2023-04-08T06:25:40.959Z,6.95
2023-04-08T06:28:08.577Z,7.10
2023-04-08T06:30:35.955Z,7.25
2023-04-08T06:33:03.889Z,10.13
2023-04-08T06:35:32.266Z,8.85
2023-04-08T06:38:00.424Z,7.05
2023-04-08T06:40:27.680Z,7.63
2023-04-08T06:42:55.817Z,6.60
2023-04-08T06:45:35.643Z,7.13
2023-04-08T06:48:03.478Z,6.15
2023-04-08T06:50:32.947Z,12.02
2023-04-08T06:53:00.945Z,6.35
2023-04-08T06:55:28.230Z,7.45
2023-04-08T06:57:55.890Z,5.22
2023-04-08T07:00:23.367Z,14.43
2023-04-08T07:02:51.448Z,6.68
2023-04-08T07:05:18.685Z,7.63
2023-04-08T07:07:46.434Z,12.25
2023-04-08T07:10:16.503Z,9.50
2023-04-08T07:12:44.018Z,8.35
2023-04-08T07:15:11.525Z,7.75
2023-04-08T07:17:39.762Z,7.60
2023-04-08T07:20:07.607Z,7.13
2023-04-08T07:22:35.401Z,6.55
2023-04-08T07:25:03.272Z,7.53
2023-04-08T07:27:30.832Z,7.43
2023-04-08T07:29:58.216Z,6.53
2023-04-08T07:32:25.909Z,5.82
2023-04-08T07:34:53.299Z,6.65
2023-04-08T07:37:20.941Z,5.50
2023-04-08T07:39:48.340Z,5.82
2023-04-08T07:42:15.875Z,5.90
2023-04-08T07:44:43.079Z,5.53
2023-04-08T07:47:12.075Z,5.53
2023-04-08T07:49:39.345Z,6.07
2023-04-08T07:52:07.634Z,5.40
2023-04-08T07:54:34.928Z,5.20
2023-04-08T07:57:02.933Z,7.80
2023-04-08T07:59:31.097Z,6.28
2023-04-08T08:01:58.900Z,6.68
2023-04-08T08:04:26.573Z,8.07
2023-04-08T08:06:54.403Z,8.65
2023-04-08T08:09:22.098Z,6.40
2023-04-08T08:11:49.631Z,4.97
2023-04-08T08:14:16.865Z,5.68
2023-04-08T08:16:44.914Z,6.20
2023-04-08T08:19:14.101Z,8.32
2023-04-08T08:21:41.896Z,10.10
2023-04-08T08:24:09.135Z,138.10
2023-04-08T08:26:39.976Z,94.82
2023-04-08T08:29:09.047Z,7.28
2023-04-08T08:31:36.797Z,32.88
2023-04-08T08:38:19.467Z,9.60
2023-04-08T08:40:47.046Z,7.43
2023-04-08T08:43:14.581Z,15.93
2023-04-08T08:45:42.687Z,8.20
2023-04-08T08:48:09.944Z,6.00
2023-04-08T08:50:38.451Z,7.85
2023-04-08T08:53:05.883Z,7.60
2023-04-08T08:56:00.190Z,6.32
2023-04-08T08:58:29.554Z,5.68
2023-04-08T09:00:57.336Z,9.38
2023-04-08T09:03:28.749Z,6.32
2023-04-08T09:05:58.607Z,7.55
2023-04-08T09:08:36.263Z,5.63
2023-04-08T09:11:13.188Z,4.10
2023-04-08T09:13:41.036Z,3.70
2023-04-08T09:16:10.936Z,4.30
2023-04-08T09:18:39.441Z,4.95
2023-04-08T09:21:13.884Z,3.97
2023-04-08T09:23:50.274Z,5.35
2023-04-08T09:26:24.493Z,4.90
2023-04-08T09:28:59.550Z,18.10
2023-04-08T09:31:29.286Z,6.35
2023-04-08T09:33:58.910Z,7.72
2023-04-08T09:36:27.684Z,5.03
2023-04-08T09:38:56.333Z,4.55
2023-04-08T09:41:25.188Z,5.65
2023-04-08T09:43:54.979Z,5.95
2023-04-08T09:46:32.483Z,4.78
2023-04-08T09:49:47.246Z,4.35
2023-04-08T09:52:40.981Z,4.63
2023-04-08T09:55:13.661Z,6.30
2023-04-08T09:58:21.680Z,4.55
2023-04-08T10:00:52.691Z,5.72
2023-04-08T10:03:46.314Z,5.80
2023-04-08T10:06:13.994Z,5.30
2023-04-08T10:08:42.399Z,9.13
2023-04-08T10:11:11.784Z,6.70
2023-04-08T10:13:43.638Z,6.40
2023-04-08T10:16:32.206Z,6.63
2023-04-08T10:19:00.149Z,6.32
2023-04-08T10:21:37.788Z,4.85
2023-04-08T10:24:09.668Z,4.65
2023-04-08T10:26:39.595Z,4.80
2023-04-08T10:29:19.486Z,6.43
2023-04-08T10:31:48.186Z,5.28
2023-04-08T10:34:29.521Z,5.22
2023-04-08T10:36:59.247Z,6.22
2023-04-08T10:39:27.597Z,7.22
2023-04-08T10:41:56.256Z,5.35
2023-04-08T10:44:26.508Z,7.47
2023-04-08T10:46:55.030Z,10.70
2023-04-08T10:49:22.820Z,4.78
2023-04-08T10:51:50.279Z,5.00
2023-04-08T10:54:19.146Z,6.32
2023-04-08T10:56:52.562Z,8.52
2023-04-08T10:59:32.247Z,12.25
2023-04-08T11:02:01.497Z,5.22
2023-04-08T11:04:29.503Z,4.75
2023-04-08T11:06:56.844Z,5.63
2023-04-08T11:09:24.424Z,5.40
2023-04-08T11:11:52.711Z,5.40
2023-04-08T11:14:22.190Z,6.95
2023-04-08T11:16:49.878Z,6.07
2023-04-08T11:19:18.477Z,6.00
2023-04-08T11:21:46.018Z,5.07
2023-04-08T11:24:13.655Z,5.03
2023-04-08T11:26:42.288Z,4.85
2023-04-08T11:29:15.058Z,7.95
2023-04-08T11:31:44.330Z,5.28
2023-04-08T11:34:14.680Z,6.63
2023-04-08T11:36:42.070Z,6.18
2023-04-08T11:39:11.793Z,6.90
2023-04-08T11:41:40.755Z,6.38
2023-04-08T11:44:09.947Z,6.10
2023-04-08T11:46:41.282Z,7.20
2023-04-08T11:49:10.283Z,8.27
2023-04-08T11:51:59.463Z,10.38
2023-04-08T11:54:32.272Z,12.90
2023-04-08T11:56:59.922Z,17.17
2023-04-08T11:59:29.520Z,16.30
2023-04-08T12:01:57.598Z,21.48
2023-04-08T12:04:25.674Z,15.63
2023-04-08T12:06:53.591Z,10.35
2023-04-08T12:09:21.898Z,14.38
2023-04-08T12:11:49.171Z,9.40
2023-04-08T12:14:16.929Z,24.13
2023-04-08T12:16:44.171Z,11.80
2023-04-08T12:19:11.862Z,17.83
2023-04-08T12:21:39.602Z,12.30
2023-04-08T12:24:07.448Z,11.07
2023-04-08T12:26:34.790Z,18.80
2023-04-08T12:29:02.625Z,17.85
2023-04-08T12:31:30.138Z,21.08
2023-04-08T12:33:57.853Z,20.48
2023-04-08T12:36:25.284Z,29.08
2023-04-08T12:38:53.158Z,22.85
2023-04-08T12:41:20.568Z,20.60
2023-04-08T12:43:51.045Z,17.10
2023-04-08T12:46:18.381Z,26.67
2023-04-08T12:48:48.799Z,20.48
2023-04-08T12:51:16.988Z,26.35
2023-04-08T12:53:44.617Z,24.63
2023-04-08T12:56:12.237Z,16.92
2023-04-08T12:58:42.676Z,24.58
2023-04-08T13:01:10.023Z,15.10
2023-04-08T13:03:37.784Z,17.20
2023-04-08T13:06:05.271Z,20.88
2023-04-08T13:08:36.707Z,24.30
2023-04-08T13:11:04.099Z,18.25
2023-04-08T13:13:33.185Z,13.85
2023-04-08T13:16:00.814Z,18.08
2023-04-08T13:18:29.485Z,16.67
2023-04-08T13:20:58.329Z,19.17
2023-04-08T13:23:26.666Z,17.92
2023-04-08T13:25:54.121Z,15.40
2023-04-08T13:28:21.974Z,20.98
2023-04-08T13:30:49.228Z,25.08
2023-04-08T13:33:17.513Z,20.10
2023-04-08T13:35:47.492Z,18.92
2023-04-08T13:38:15.223Z,21.08
2023-04-08T13:40:42.615Z,21.67
2023-04-08T13:43:10.159Z,16.73
2023-04-08T13:45:37.610Z,26.30
2023-04-08T13:48:05.355Z,20.30
2023-04-08T13:50:32.877Z,13.20
2023-04-08T13:53:00.580Z,14.73
2023-04-08T13:55:27.965Z,12.57
2023-04-08T13:57:56.683Z,13.90
2023-04-08T14:00:25.651Z,12.38
2023-04-08T14:02:54.037Z,15.82
2023-04-08T14:05:21.400Z,12.73
2023-04-08T14:07:49.011Z,12.45
2023-04-08T14:10:17.681Z,19.08
2023-04-08T14:12:46.766Z,17.15
2023-04-08T14:15:13.957Z,13.95
2023-04-08T14:17:42.230Z,16.02
2023-04-08T14:20:15.698Z,15.50
2023-04-08T14:22:46.558Z,17.40
2023-04-08T14:25:16.801Z,15.05
2023-04-08T14:27:57.343Z,17.65
2023-04-08T14:30:27.260Z,16.25
2023-04-08T14:32:55.440Z,17.10
2023-04-08T14:35:23.170Z,20.48
2023-04-08T14:37:50.829Z,22.08
2023-04-08T14:40:20.559Z,18.88
2023-04-08T14:42:50.026Z,21.40
2023-04-08T14:45:17.541Z,21.33
2023-04-08T14:47:46.232Z,22.42
2023-04-08T14:50:13.523Z,22.13
2023-04-08T14:52:41.254Z,21.90
2023-04-08T14:55:09.356Z,22.63
2023-04-08T14:57:36.938Z,23.83
2023-04-08T15:00:07.890Z,19.23
2023-04-08T15:02:35.568Z,21.65
2023-04-08T15:05:05.551Z,26.17
2023-04-08T15:07:33.150Z,24.33
2023-04-08T15:10:00.717Z,31.92
2023-04-08T15:12:29.291Z,28.45
2023-04-08T15:14:56.941Z,35.42
2023-04-08T15:17:26.575Z,28.90
2023-04-08T15:19:53.932Z,29.02
2023-04-08T15:22:21.886Z,26.75
2023-04-08T15:24:49.127Z,36.70
2023-04-08T15:27:16.745Z,35.92
2023-04-08T15:29:44.075Z,36.30
2023-04-08T15:32:11.652Z,36.63
2023-04-08T15:34:41.120Z,28.67
2023-04-08T15:37:11.825Z,21.45
2023-04-08T15:39:41.765Z,23.73
2023-04-08T15:42:09.658Z,24.80
2023-04-08T15:44:39.921Z,23.80
2023-04-08T15:47:08.985Z,26.45
2023-04-08T15:49:36.361Z,25.15
2023-04-08T15:52:04.182Z,24.17
2023-04-08T15:54:34.234Z,25.02
2023-04-08T15:57:02.799Z,24.58
2023-04-08T15:59:33.417Z,28.65
2023-04-08T16:02:01.160Z,25.30
2023-04-08T16:04:29.039Z,28.20
2023-04-08T16:06:56.711Z,28.13
2023-04-08T16:09:26.949Z,32.00
2023-04-08T16:11:54.648Z,26.92
2023-04-08T16:14:22.041Z,23.90
2023-04-08T16:16:49.629Z,30.73
2023-04-08T16:19:18.498Z,26.20
2023-04-08T16:21:46.504Z,26.88
2023-04-08T16:24:14.455Z,25.63
2023-04-08T16:26:42.180Z,25.52
2023-04-08T16:29:09.406Z,27.23
2023-04-08T16:31:37.483Z,24.48
2023-04-08T16:34:05.273Z,39.38
2023-04-08T16:36:32.827Z,39.90
2023-04-08T16:39:00.067Z,36.60
2023-04-08T16:41:29.769Z,31.50
2023-04-08T16:44:02.173Z,30.85
2023-04-08T16:46:29.907Z,37.03
2023-04-08T16:48:57.097Z,27.20
2023-04-08T16:51:24.787Z,26.35
2023-04-08T16:53:52.974Z,24.42
2023-04-08T16:56:21.938Z,29.40
2023-04-08T16:58:49.210Z,21.95
2023-04-08T17:01:17.402Z,26.48
2023-04-08T17:03:44.970Z,30.50
2023-04-08T17:06:17.433Z,30.23
2023-04-08T17:08:44.843Z,33.33
2023-04-08T17:11:14.766Z,28.95
2023-04-08T17:13:43.626Z,28.35
2023-04-08T17:16:15.018Z,27.88
2023-04-08T17:18:43.241Z,26.67
2023-04-08T17:21:12.105Z,29.73
2023-04-08T17:23:39.644Z,31.02
2023-04-08T17:26:07.984Z,30.55
2023-04-08T17:28:36.082Z,35.38
2023-04-08T17:31:03.878Z,38.53
2023-04-08T17:33:31.527Z,30.38
2023-04-08T17:35:59.160Z,32.28
2023-04-08T17:38:26.548Z,30.50
2023-04-08T17:40:54.528Z,31.83
2023-04-08T17:43:21.825Z,36.08
2023-04-08T17:45:53.144Z,35.05
2023-04-08T17:48:21.009Z,38.70
2023-04-08T17:50:48.662Z,45.08
2023-04-08T17:53:16.100Z,43.67
2023-04-08T17:55:43.633Z,60.10
2023-04-08T17:58:10.949Z,61.20
2023-04-08T18:00:38.548Z,44.47
2023-04-08T18:03:06.148Z,41.80
2023-04-08T18:05:36.622Z,32.03
2023-04-08T18:08:04.208Z,33.70
2023-04-08T18:10:31.981Z,49.38
2023-04-08T18:13:11.214Z,52.95
2023-04-08T18:15:39.645Z,42.67
2023-04-08T18:18:07.329Z,46.92
2023-04-08T18:20:36.879Z,38.03
2023-04-08T18:23:04.626Z,36.83
2023-04-08T18:25:34.728Z,34.47
2023-04-08T18:28:02.464Z,33.50
2023-04-08T18:30:30.585Z,37.55
2023-04-08T18:32:58.198Z,35.85
2023-04-08T18:35:26.802Z,41.55
2023-04-08T18:37:54.098Z,40.85
2023-04-08T18:40:25.160Z,33.50
2023-04-08T18:42:52.810Z,40.38
2023-04-08T18:45:20.689Z,31.80
2023-04-08T18:47:48.184Z,33.85
2023-04-08T18:50:16.283Z,30.00
2023-04-08T18:52:43.865Z,32.53
2023-04-08T18:55:14.058Z,35.00
2023-04-08T18:57:42.111Z,36.42
2023-04-08T19:00:10.247Z,29.70
2023-04-08T19:02:37.766Z,27.13
2023-04-08T19:05:06.299Z,31.63
2023-04-08T19:07:34.487Z,33.80
2023-04-08T19:10:02.310Z,42.28
2023-04-08T19:12:29.833Z,50.88
2023-04-08T19:14:57.629Z,50.47
2023-04-08T19:17:25.071Z,48.63
2023-04-08T19:19:52.765Z,42.17
2023-04-08T19:22:20.228Z,41.42
2023-04-08T19:24:48.449Z,41.40
2023-04-08T19:27:19.216Z,35.47
2023-04-08T19:29:51.069Z,32.97
2023-04-08T19:32:19.067Z,34.70
2023-04-08T19:34:47.134Z,33.05
2023-04-08T19:37:17.386Z,33.85
2023-04-08T19:39:45.392Z,43.13
2023-04-08T19:42:13.632Z,43.33
2023-04-08T19:44:41.524Z,44.08
2023-04-08T19:47:09.074Z,74.00
2023-04-08T19:49:37.245Z,58.72
2023-04-08T19:52:04.781Z,57.55
2023-04-08T19:54:32.804Z,43.25
2023-04-08T19:57:00.977Z,47.67
2023-04-08T19:59:29.832Z,45.33
2023-04-08T20:01:59.314Z,38.90
2023-04-08T20:04:27.096Z,36.75
2023-04-08T20:06:54.443Z,35.38
2023-04-08T20:09:22.902Z,33.55
2023-04-08T20:11:50.276Z,33.17
2023-04-08T20:14:17.971Z,35.78
2023-04-08T20:16:45.581Z,38.22
2023-04-08T20:19:13.675Z,44.90
2023-04-08T20:21:42.205Z,47.10
2023-04-08T20:24:10.818Z,46.13
2023-04-08T20:26:38.082Z,53.92
2023-04-08T20:29:06.226Z,50.97
2023-04-08T20:31:34.197Z,53.20
2023-04-08T20:34:04.840Z,62.60
2023-04-08T20:36:32.887Z,59.72
2023-04-08T20:39:00.427Z,60.35
2023-04-08T20:41:27.953Z,63.58
2023-04-08T20:43:55.651Z,61.92
2023-04-08T20:46:25.182Z,59.00
2023-04-08T20:48:53.176Z,62.17
2023-04-08T20:51:20.832Z,64.07
2023-04-08T20:53:48.667Z,59.60
2023-04-08T20:56:16.091Z,66.78
2023-04-08T20:58:43.743Z,62.65
2023-04-08T21:01:11.209Z,62.15
2023-04-08T21:03:39.100Z,59.85
2023-04-08T21:06:06.464Z,67.28
2023-04-08T21:08:34.329Z,67.18
2023-04-08T21:11:01.659Z,76.93
2023-04-08T21:13:29.200Z,86.43
2023-04-08T21:15:58.703Z,94.05
2023-04-08T21:18:27.045Z,94.13
2023-04-08T21:20:54.280Z,98.45
2023-04-08T21:23:21.798Z,94.38
2023-04-08T21:25:49.239Z,95.57
2023-04-08T21:28:17.669Z,90.50
2023-04-08T21:30:45.228Z,91.30
2023-04-08T21:33:13.584Z,92.90
2023-04-08T21:35:40.855Z,90.80
2023-04-08T21:38:08.501Z,86.05
2023-04-08T21:40:36.852Z,80.18
2023-04-08T21:43:04.437Z,79.18
2023-04-08T21:45:31.839Z,79.68
2023-04-08T21:47:59.408Z,78.25
2023-04-08T21:50:26.684Z,73.70
2023-04-08T21:52:54.212Z,72.32
2023-04-08T21:55:21.640Z,72.55
2023-04-08T21:57:49.232Z,69.43
2023-04-08T22:00:19.425Z,68.70
2023-04-08T22:02:47.144Z,64.35
2023-04-08T22:05:14.562Z,65.80
2023-04-08T22:07:42.607Z,65.47
2023-04-08T22:10:10.460Z,69.85
2023-04-08T22:12:37.999Z,71.22
2023-04-08T22:15:08.708Z,65.60
2023-04-08T22:17:36.501Z,65.00
2023-04-08T22:20:04.253Z,57.90
2023-04-08T22:22:32.046Z,55.83
2023-04-08T22:24:59.409Z,55.10
2023-04-08T22:27:28.810Z,52.95
2023-04-08T22:29:56.089Z,58.70
2023-04-08T22:32:23.809Z,63.58
2023-04-08T22:34:51.265Z,63.60
2023-04-08T22:37:18.766Z,65.32
2023-04-08T22:39:48.194Z,63.10
2023-04-08T22:42:15.745Z,63.83
2023-04-08T22:44:43.037Z,61.47
2023-04-08T22:47:11.131Z,55.83
2023-04-08T22:49:42.837Z,54.30
2023-04-08T22:52:18.177Z,53.47
2023-04-08T22:54:47.755Z,56.72
2023-04-08T22:57:15.255Z,57.38
2023-04-08T22:59:42.574Z,58.55
2023-04-08T23:02:10.185Z,62.58
2023-04-08T23:04:37.558Z,69.72
2023-04-08T23:07:06.952Z,83.28
2023-04-08T23:09:36.038Z,80.50
2023-04-08T23:12:06.381Z,78.60
2023-04-08T23:14:33.588Z,73.93
2023-04-08T23:17:01.350Z,77.85
2023-04-08T23:19:29.402Z,79.68
2023-04-08T23:21:57.068Z,74.05
2023-04-08T23:24:24.371Z,76.35
2023-04-08T23:26:51.854Z,75.35
2023-04-08T23:29:19.170Z,71.05
2023-04-08T23:31:46.687Z,66.43
2023-04-08T23:34:13.871Z,67.43
2023-04-08T23:36:41.438Z,67.57
2023-04-08T23:39:08.753Z,66.15
2023-04-08T23:41:36.554Z,62.85
2023-04-08T23:44:03.873Z,60.45
2023-04-08T23:46:31.846Z,56.22
2023-04-08T23:48:59.154Z,58.28
2023-04-08T23:51:28.047Z,58.75
2023-04-08T23:53:58.146Z,58.08
2023-04-08T23:56:26.395Z,58.90
2023-04-08T23:58:54.017Z,55.22
